LFPC/CSF METAR and TAF weather

Enter ICAO airport designator
Station Type Date Time Source
LFPC METAR 2016/09/01 15:00 UTC NOAA

LFPC 011500Z AUTO 30004KT 240V350 CAVOK 24/13 Q1023


Station Type Date Time Source
LFPC Decoded METAR 2016/09/01 15:00 UTC NOAA

Creil Fafb , France (LFPC) 49-15N 002-31E
Sep 01, 2016 - 11:00 AM EDT / 2016.09.01 1500 UTC
Wind: from the WNW (300 degrees) at 5 MPH (4 KT) (direction variable):0
Visibility: greater than 7 mile(s):0
Temperature: 75 F (24 C)
Dew Point: 55 F (13 C)
Relative Humidity: 50%
Pressure (altimeter): 30.21 in. Hg (1023 hPa)
ob: LFPC 011500Z AUTO 30004KT 240V350 CAVOK 24/13 Q1023
cycle: 15

Station Type Date Time Source
LFPC TAF 2016/08/26 18:00 UTC NOAA

TAF LFPC 261700Z 2618/2718 VRB02KT CAVOK


Example: see airport list